Time;durP1;ratioP1;P1;durP2;ratioP2;P2;SDS_P1;SDS_P2;PMS_P1;PMS_P2;Temp;Humidity;BMP_temperature;BMP_pressure;BME280_temperature;BME280_humidity;BME280_pressure;Samples;Min_cycle;Max_cycle;Signal;HPM_P1;HPM_P2
2022/11/11 00:02:06;;;;;;;13.40;5.57;;;9.20;99.90;;;;;;5073366;28;20730;-68
2022/11/11 00:04:31;;;;;;;8.57;5.17;;;9.20;99.90;;;;;;5073402;28;20205;-68
2022/11/11 00:06:57;;;;;;;10.60;5.90;;;9.20;99.90;;;;;;5073261;28;20288;-68
2022/11/11 00:09:23;;;;;;;11.67;5.67;;;9.20;99.90;;;;;;5073286;28;20186;-68
2022/11/11 00:11:48;;;;;;;9.13;5.63;;;9.20;99.90;;;;;;5071842;28;20272;-68
2022/11/11 00:14:14;;;;;;;10.03;6.00;;;9.20;99.90;;;;;;5073505;28;20190;-68
2022/11/11 00:25:08;;;;;;;11.77;5.93;;;9.10;99.90;;;;;;5083002;28;20190;-68
2022/11/11 00:27:34;;;;;;;12.53;6.30;;;9.00;99.90;;;;;;5076986;28;20258;-68
2022/11/11 00:30:01;;;;;;;7.40;5.40;;;9.00;99.90;;;;;;5075837;28;20563;-68
2022/11/11 00:32:27;;;;;;;8.90;5.70;;;9.00;99.90;;;;;;5077065;28;20185;-68
2022/11/11 00:37:41;;;;;;;10.80;5.57;;;8.80;99.90;;;;;;5077151;28;20204;-68
2022/11/11 00:40:07;;;;;;;10.60;5.60;;;8.80;99.90;;;;;;5076910;28;20173;-68
2022/11/11 00:42:33;;;;;;;11.00;6.23;;;8.80;99.90;;;;;;5076612;28;20169;-68
2022/11/11 00:44:59;;;;;;;10.50;5.70;;;8.70;99.90;;;;;;5075354;28;20226;-69
2022/11/11 00:53:12;;;;;;;7.00;5.40;;;8.70;99.90;;;;;;5077131;28;20189;-68
2022/11/11 00:55:38;;;;;;;9.87;5.83;;;8.70;99.90;;;;;;5075011;28;20205;-68
2022/11/11 00:58:04;;;;;;;9.70;5.73;;;8.70;99.90;;;;;;5076452;28;20277;-69
2022/11/11 01:00:30;;;;;;;10.73;5.73;;;8.70;99.90;;;;;;5076692;28;20260;-68
2022/11/11 01:02:57;;;;;;;14.47;6.40;;;8.70;99.90;;;;;;5076941;28;20245;-68
2022/11/11 01:05:22;;;;;;;10.30;5.90;;;8.70;99.90;;;;;;5076691;28;20166;-68
2022/11/11 01:07:49;;;;;;;9.63;6.13;;;8.80;99.90;;;;;;5076180;28;20204;-68
2022/11/11 01:10:36;;;;;;;9.93;6.10;;;8.80;99.90;;;;;;5076557;28;20537;-68
2022/11/11 01:13:11;;;;;;;8.87;6.00;;;8.80;99.90;;;;;;5076130;28;20243;-67
2022/11/11 01:15:42;;;;;;;9.90;5.83;;;8.90;99.90;;;;;;5076183;28;20185;-68
2022/11/11 01:18:09;;;;;;;12.93;6.10;;;8.90;99.90;;;;;;5076171;28;20198;-68
2022/11/11 01:20:36;;;;;;;10.60;5.97;;;8.90;99.90;;;;;;5076298;28;20623;-68
2022/11/11 01:23:06;;;;;;;14.30;6.40;;;8.90;99.90;;;;;;5076071;28;20178;-69
2022/11/11 01:25:34;;;;;;;7.17;5.23;;;8.90;99.90;;;;;;5074764;28;20185;-69
2022/11/11 01:28:00;;;;;;;8.43;5.97;;;8.90;99.90;;;;;;5074665;28;20284;-69
2022/11/11 01:30:26;;;;;;;11.23;5.93;;;8.90;99.90;;;;;;5074756;28;20236;-69
2022/11/11 01:32:52;;;;;;;7.50;5.70;;;8.80;99.90;;;;;;5074584;28;20177;-69
2022/11/11 01:35:17;;;;;;;8.70;5.40;;;8.80;99.90;;;;;;5075738;28;20586;-68
2022/11/11 01:37:43;;;;;;;7.00;5.87;;;8.80;99.90;;;;;;5076928;28;20258;-69
2022/11/11 01:40:09;;;;;;;8.13;5.77;;;8.80;99.90;;;;;;5094758;28;20177;-69
2022/11/11 01:43:22;;;;;;;10.10;6.07;;;8.80;99.90;;;;;;5094491;28;20181;-69
2022/11/11 01:45:48;;;;;;;10.00;5.73;;;8.80;99.90;;;;;;5095995;28;20203;-69
2022/11/11 01:51:17;;;;;;;8.13;5.93;;;8.80;99.90;;;;;;5096404;28;20169;-69
2022/11/11 01:53:44;;;;;;;7.97;5.47;;;8.80;99.90;;;;;;5094473;28;20179;-69
2022/11/11 01:56:11;;;;;;;7.43;5.60;;;8.70;99.90;;;;;;5095372;28;20200;-69
2022/11/11 01:58:37;;;;;;;9.63;5.80;;;8.70;99.90;;;;;;5095534;28;20238;-69
2022/11/11 02:01:04;;;;;;;9.63;5.60;;;8.70;99.90;;;;;;5095603;28;20204;-69
2022/11/11 02:03:35;;;;;;;15.90;6.00;;;8.70;99.90;;;;;;5094278;28;20227;-69
2022/11/11 02:06:01;;;;;;;11.83;6.30;;;8.60;99.90;;;;;;5095447;28;20157;-69
2022/11/11 02:08:32;;;;;;;9.17;5.67;;;8.60;99.90;;;;;;5086046;28;20213;-69
2022/11/11 02:16:45;;;;;;;6.83;5.67;;;8.70;99.90;;;;;;5075151;28;20747;-68
2022/11/11 02:19:11;;;;;;;6.70;4.93;;;8.70;99.90;;;;;;5075050;28;20173;-69
2022/11/11 02:21:48;;;;;;;15.33;6.40;;;8.70;99.90;;;;;;5074967;28;20623;-69
2022/11/11 02:24:19;;;;;;;9.77;5.00;;;8.70;99.90;;;;;;5075309;28;20165;-69
2022/11/11 02:26:46;;;;;;;10.87;5.43;;;8.70;99.90;;;;;;5073450;28;20263;-69
2022/11/11 02:29:15;;;;;;;9.27;5.70;;;8.70;99.90;;;;;;5074930;28;20522;-69
2022/11/11 02:31:41;;;;;;;7.10;5.40;;;8.80;99.90;;;;;;5073540;28;20285;-69
2022/11/11 02:34:07;;;;;;;6.93;5.17;;;8.80;99.90;;;;;;5073441;28;20733;-68
2022/11/11 02:36:33;;;;;;;10.50;5.40;;;8.80;99.90;;;;;;5074466;28;20218;-68
2022/11/11 02:38:59;;;;;;;10.00;5.50;;;8.80;99.90;;;;;;5073169;28;20318;-68
2022/11/11 02:42:25;;;;;;;7.07;5.20;;;8.80;99.90;;;;;;5075244;28;20181;-71
2022/11/11 02:44:20;;;;;;;7.87;5.10;;;8.80;99.90;;;;;;5078658;28;20661;-69
2022/11/11 02:46:45;;;;;;;7.27;5.20;;;8.80;99.90;;;;;;5074231;28;20247;-69
2022/11/11 02:49:11;;;;;;;8.63;4.97;;;8.80;99.90;;;;;;5073485;28;20256;-68
2022/11/11 02:51:37;;;;;;;8.40;5.73;;;8.80;99.90;;;;;;5074638;28;20162;-68
2022/11/11 02:54:02;;;;;;;7.93;5.40;;;8.70;99.90;;;;;;5074572;28;20642;-68
2022/11/11 02:59:13;;;;;;;6.40;5.40;;;8.70;99.90;;;;;;5074294;28;20169;-68
2022/11/11 03:01:38;;;;;;;10.17;4.90;;;8.60;99.90;;;;;;5074168;28;20158;-68
2022/11/11 03:04:05;;;;;;;6.20;4.93;;;8.60;99.90;;;;;;5072868;28;20174;-68
2022/11/11 03:06:30;;;;;;;9.33;5.10;;;8.50;99.90;;;;;;5074045;28;20208;-68
2022/11/11 03:08:56;;;;;;;7.43;5.70;;;8.50;99.90;;;;;;5074191;28;20194;-68
2022/11/11 03:11:28;;;;;;;7.57;4.93;;;8.50;99.90;;;;;;5074363;28;20552;-68
2022/11/11 03:13:55;;;;;;;8.30;4.97;;;8.50;99.90;;;;;;5073328;28;20558;-68
2022/11/11 03:19:05;;;;;;;10.03;5.50;;;8.50;99.90;;;;;;5074263;28;20540;-68
2022/11/11 03:21:31;;;;;;;9.20;5.77;;;8.50;99.90;;;;;;5073995;28;20182;-68
2022/11/11 03:23:56;;;;;;;6.60;5.90;;;8.50;99.90;;;;;;5072782;28;20178;-68
2022/11/11 03:26:22;;;;;;;9.03;5.57;;;8.50;99.90;;;;;;5073932;28;20260;-68
2022/11/11 03:28:48;;;;;;;8.00;5.43;;;8.50;99.90;;;;;;5074370;28;20172;-68
2022/11/11 03:31:14;;;;;;;6.07;5.47;;;8.50;99.90;;;;;;5073756;28;20205;-68
2022/11/11 03:33:40;;;;;;;8.00;5.20;;;8.50;99.90;;;;;;5073783;28;20174;-68
2022/11/11 03:36:06;;;;;;;8.97;5.90;;;8.40;99.90;;;;;;5073671;28;20204;-68
2022/11/11 03:38:32;;;;;;;7.73;5.37;;;8.40;99.90;;;;;;5074052;28;20185;-68
2022/11/11 03:40:58;;;;;;;7.33;5.70;;;8.40;99.90;;;;;;5072331;28;20197;-68
2022/11/11 03:43:27;;;;;;;8.63;6.00;;;8.40;99.90;;;;;;5073099;28;20228;-68
2022/11/11 03:45:54;;;;;;;8.13;5.70;;;8.40;99.90;;;;;;5072366;28;20247;-68
2022/11/11 03:48:21;;;;;;;8.77;5.57;;;8.50;99.90;;;;;;5072999;28;20638;-68
2022/11/11 03:50:47;;;;;;;8.30;6.17;;;8.50;99.90;;;;;;5073562;28;20204;-68
2022/11/11 03:53:13;;;;;;;11.13;5.50;;;8.50;99.90;;;;;;5073884;28;20257;-68
2022/11/11 03:55:40;;;;;;;8.17;5.53;;;8.50;99.90;;;;;;5073469;28;20212;-68
2022/11/11 03:58:05;;;;;;;9.97;5.90;;;8.50;99.90;;;;;;5073444;28;20194;-68
2022/11/11 04:00:31;;;;;;;10.73;5.97;;;8.50;99.90;;;;;;5076705;28;20188;-68
2022/11/11 04:11:16;;;;;;;7.37;5.27;;;8.60;99.90;;;;;;5080403;28;20693;-68
2022/11/11 04:16:29;;;;;;;6.83;5.33;;;8.60;99.90;;;;;;5080053;28;20216;-68
2022/11/11 04:21:42;;;;;;;7.23;4.80;;;8.60;99.90;;;;;;5080073;28;20581;-67
2022/11/11 04:26:55;;;;;;;5.53;5.00;;;8.60;99.90;;;;;;5080968;28;20292;-68
2022/11/11 04:29:27;;;;;;;6.87;5.00;;;8.60;99.90;;;;;;5078516;28;20189;-67
2022/11/11 04:34:44;;;;;;;8.93;5.13;;;8.60;99.90;;;;;;5080271;28;20164;-68
2022/11/11 04:37:10;;;;;;;9.30;5.27;;;8.60;99.90;;;;;;5078329;28;20270;-68
2022/11/11 04:42:21;;;;;;;5.73;4.90;;;8.60;99.90;;;;;;5079904;28;20215;-68
2022/11/11 04:47:31;;;;;;;11.10;5.57;;;8.50;99.90;;;;;;5080173;28;20216;-68
2022/11/11 04:49:57;;;;;;;6.17;5.00;;;8.40;99.90;;;;;;5079654;28;20186;-68
2022/11/11 04:52:25;;;;;;;13.13;4.97;;;8.40;99.90;;;;;;5078421;28;20216;-68
2022/11/11 04:57:44;;;;;;;6.80;5.17;;;8.30;99.90;;;;;;5079572;28;20235;-68
2022/11/11 05:00:14;;;;;;;7.77;5.27;;;8.20;99.90;;;;;;5079873;28;20244;-68
2022/11/11 05:05:25;;;;;;;6.00;5.40;;;8.20;99.90;;;;;;5080272;28;20177;-68
2022/11/11 05:10:34;;;;;;;8.23;5.03;;;8.20;99.90;;;;;;5079678;28;20623;-65
2022/11/11 05:21:20;;;;;;;6.67;5.10;;;8.40;99.90;;;;;;5076641;28;20263;-66
2022/11/11 05:26:30;;;;;;;7.47;5.63;;;8.50;99.90;;;;;;5075725;28;20238;-66
2022/11/11 05:28:56;;;;;;;7.70;5.23;;;8.60;99.90;;;;;;5075839;28;20178;-66
2022/11/11 05:31:22;;;;;;;7.03;5.70;;;8.60;99.90;;;;;;5076046;28;20294;-66
2022/11/11 05:33:48;;;;;;;9.37;6.23;;;8.70;99.90;;;;;;5074510;28;20185;-66
2022/11/11 05:36:14;;;;;;;7.70;5.93;;;8.70;99.90;;;;;;5074353;28;20564;-66
2022/11/11 05:38:39;;;;;;;8.40;5.83;;;8.70;99.90;;;;;;5075727;28;20188;-66
2022/11/11 05:41:06;;;;;;;10.97;6.23;;;8.70;99.90;;;;;;5075478;28;20182;-66
2022/11/11 05:43:32;;;;;;;7.73;5.63;;;8.70;99.90;;;;;;5075824;28;20235;-67
2022/11/11 05:45:57;;;;;;;10.43;5.57;;;8.70;99.90;;;;;;5075639;28;20202;-68
2022/11/11 05:48:23;;;;;;;7.30;5.40;;;8.70;99.90;;;;;;5075467;28;20204;-68
2022/11/11 05:50:49;;;;;;;8.17;4.80;;;8.70;99.90;;;;;;5075531;28;20210;-68
2022/11/11 05:53:14;;;;;;;7.67;5.43;;;8.70;99.90;;;;;;5074160;28;20272;-65
2022/11/11 05:55:40;;;;;;;7.00;5.77;;;8.70;99.90;;;;;;5073979;28;20274;-66
2022/11/11 05:58:06;;;;;;;7.37;5.40;;;8.70;99.90;;;;;;5073909;28;20668;-66
2022/11/11 06:00:31;;;;;;;5.63;5.13;;;8.60;99.90;;;;;;5075209;28;20178;-66
2022/11/11 06:03:07;;;;;;;6.03;4.87;;;8.60;99.90;;;;;;5074028;28;20220;-66
2022/11/11 06:05:35;;;;;;;7.27;4.87;;;8.70;99.90;;;;;;5075411;28;20696;-66
2022/11/11 06:08:01;;;;;;;8.57;5.50;;;8.60;99.90;;;;;;5074785;28;20202;-66
2022/11/11 06:10:30;;;;;;;7.43;5.07;;;8.60;99.90;;;;;;5075241;28;20590;-66
2022/11/11 06:13:08;;;;;;;9.60;5.77;;;8.60;99.90;;;;;;5073538;28;20323;-66
2022/11/11 06:15:36;;;;;;;7.57;5.67;;;8.60;99.90;;;;;;5074800;28;20193;-66
2022/11/11 06:18:03;;;;;;;7.03;4.93;;;8.60;99.90;;;;;;5075828;28;20677;-65
2022/11/11 06:20:29;;;;;;;9.23;5.50;;;8.50;99.90;;;;;;5075153;28;20185;-66
2022/11/11 06:22:55;;;;;;;8.80;5.13;;;8.50;99.90;;;;;;5074913;28;20178;-66
2022/11/11 06:28:09;;;;;;;8.87;5.77;;;8.40;99.90;;;;;;5074767;28;20327;-65
2022/11/11 06:30:35;;;;;;;12.57;5.93;;;8.50;99.90;;;;;;5074543;28;20692;-65
2022/11/11 06:33:01;;;;;;;8.77;5.33;;;8.40;99.90;;;;;;5074776;28;20170;-66
2022/11/11 06:35:27;;;;;;;6.97;5.10;;;8.50;99.90;;;;;;5073103;28;20182;-65
2022/11/11 06:37:53;;;;;;;5.33;4.80;;;8.40;99.90;;;;;;5073523;28;20251;-66
2022/11/11 06:40:19;;;;;;;9.30;5.50;;;8.50;99.90;;;;;;5074446;28;20542;-65
2022/11/11 06:42:45;;;;;;;6.97;5.23;;;8.50;99.90;;;;;;5074267;28;20178;-66
2022/11/11 06:45:11;;;;;;;6.17;5.30;;;8.50;99.90;;;;;;5073130;28;20650;-66
2022/11/11 06:47:36;;;;;;;7.17;5.70;;;8.60;99.90;;;;;;5074337;28;20196;-66
2022/11/11 06:50:02;;;;;;;6.93;4.80;;;8.50;99.90;;;;;;5074269;28;20177;-66
2022/11/11 06:52:28;;;;;;;7.30;5.30;;;8.60;99.90;;;;;;5074799;28;20166;-66
2022/11/11 06:54:54;;;;;;;6.53;5.23;;;8.60;99.90;;;;;;5074421;28;20281;-66
2022/11/11 06:57:22;;;;;;;5.30;4.80;;;8.60;99.90;;;;;;5072569;28;20209;-65
2022/11/11 06:59:47;;;;;;;7.97;5.17;;;8.60;99.90;;;;;;5074144;28;20180;-66
2022/11/11 07:02:13;;;;;;;6.83;5.33;;;8.70;99.90;;;;;;5072715;28;20177;-65
2022/11/11 07:04:39;;;;;;;7.07;5.20;;;8.70;99.90;;;;;;5073941;28;20165;-66
2022/11/11 07:07:05;;;;;;;6.80;5.30;;;8.60;99.90;;;;;;5074142;28;20711;-66
2022/11/11 07:09:31;;;;;;;12.83;5.63;;;8.60;99.90;;;;;;5074111;28;20230;-65
2022/11/11 07:11:56;;;;;;;10.13;4.93;;;8.60;99.90;;;;;;5073947;28;20189;-65
2022/11/11 07:14:22;;;;;;;5.60;5.07;;;8.60;99.90;;;;;;5073797;28;20178;-65
2022/11/11 07:16:48;;;;;;;6.43;4.53;;;8.60;99.90;;;;;;5073606;28;20282;-65
2022/11/11 07:19:13;;;;;;;7.33;5.03;;;8.70;99.90;;;;;;5073741;28;20618;-66
2022/11/11 07:21:39;;;;;;;5.40;4.80;;;8.70;99.90;;;;;;5072448;28;20181;-65
2022/11/11 07:24:05;;;;;;;5.63;5.00;;;8.70;99.90;;;;;;5073672;28;20233;-65
2022/11/11 07:26:30;;;;;;;6.83;4.70;;;8.70;99.90;;;;;;5073489;28;20733;-65
2022/11/11 07:28:57;;;;;;;10.87;5.20;;;8.70;99.90;;;;;;5073637;28;20256;-65
2022/11/11 07:31:22;;;;;;;6.33;4.80;;;8.70;99.90;;;;;;5073559;28;20174;-65
2022/11/11 07:33:48;;;;;;;7.73;5.10;;;8.70;99.90;;;;;;5072298;28;20182;-65
2022/11/11 07:36:14;;;;;;;6.00;4.73;;;8.80;99.90;;;;;;5073207;28;20580;-66
2022/11/11 07:38:40;;;;;;;5.30;4.80;;;8.80;99.90;;;;;;5073391;28;20213;-65
2022/11/11 07:41:05;;;;;;;6.43;4.43;;;8.90;99.90;;;;;;5073695;28;20174;-69
2022/11/11 07:43:31;;;;;;;8.20;4.90;;;8.90;99.90;;;;;;5073926;28;20303;-65
2022/11/11 07:45:57;;;;;;;6.47;4.70;;;9.00;99.90;;;;;;5073332;28;20189;-65
2022/11/11 07:48:22;;;;;;;7.07;4.80;;;9.00;99.90;;;;;;5074015;28;20586;-65
2022/11/11 07:50:51;;;;;;;5.23;4.63;;;9.10;99.90;;;;;;5073419;28;20186;-65
2022/11/11 07:53:18;;;;;;;8.80;4.93;;;9.20;99.90;;;;;;5073337;28;20209;-65
2022/11/11 07:55:45;;;;;;;4.87;4.00;;;9.30;99.90;;;;;;5073854;28;20203;-65
2022/11/11 07:58:11;;;;;;;6.83;4.50;;;9.30;99.90;;;;;;5073295;28;20190;-66
2022/11/11 08:00:37;;;;;;;4.83;4.37;;;9.30;99.90;;;;;;5073448;28;20170;-65
2022/11/11 08:03:03;;;;;;;9.07;5.33;;;9.30;99.90;;;;;;5073897;28;20195;-65
2022/11/11 08:05:29;;;;;;;6.37;4.70;;;9.40;99.90;;;;;;5073596;28;20185;-65
2022/11/11 08:07:55;;;;;;;6.03;5.47;;;9.40;99.90;;;;;;5073364;28;20198;-65
2022/11/11 08:10:21;;;;;;;4.87;4.37;;;9.40;99.90;;;;;;5073246;28;20173;-65
2022/11/11 08:15:37;;;;;;;6.97;4.57;;;9.50;99.90;;;;;;5073799;28;20529;-65
2022/11/11 08:18:03;;;;;;;5.27;4.70;;;9.50;99.90;;;;;;5073284;28;20190;-65
2022/11/11 08:20:29;;;;;;;4.90;4.50;;;9.50;99.90;;;;;;5073428;28;20223;-65
2022/11/11 08:22:56;;;;;;;5.33;4.83;;;9.50;99.90;;;;;;5073471;28;20158;-65
2022/11/11 08:25:22;;;;;;;6.33;4.80;;;9.50;99.90;;;;;;5073024;28;20598;-66
2022/11/11 08:27:48;;;;;;;5.13;4.40;;;9.60;99.90;;;;;;5071680;28;20292;-65
2022/11/11 08:30:14;;;;;;;7.00;4.70;;;9.60;99.90;;;;;;5073100;28;20631;-65
2022/11/11 08:32:40;;;;;;;6.87;4.90;;;9.60;99.90;;;;;;5073244;28;20208;-65
2022/11/11 08:35:06;;;;;;;5.13;4.50;;;9.70;99.90;;;;;;5073011;28;20231;-65
2022/11/11 08:37:32;;;;;;;5.70;4.50;;;9.70;99.90;;;;;;5072817;28;20684;-66
2022/11/11 08:39:57;;;;;;;8.13;4.57;;;9.80;99.90;;;;;;5072994;28;20204;-65
2022/11/11 08:42:23;;;;;;;5.97;4.53;;;9.90;99.90;;;;;;5072836;28;20262;-65
2022/11/11 08:44:50;;;;;;;5.17;4.30;;;9.90;99.90;;;;;;5073171;28;20185;-65
2022/11/11 08:47:16;;;;;;;9.23;4.43;;;10.00;99.90;;;;;;5072809;28;20232;-65
2022/11/11 08:49:42;;;;;;;4.10;3.77;;;10.10;99.90;;;;;;5076568;28;20638;-65
2022/11/11 08:52:08;;;;;;;4.57;3.90;;;10.10;99.90;;;;;;5076794;28;20177;-65
2022/11/11 08:54:34;;;;;;;6.03;4.30;;;10.20;99.90;;;;;;5076544;28;20177;-65
2022/11/11 08:56:59;;;;;;;4.47;4.00;;;10.20;99.90;;;;;;5076395;28;20215;-65
2022/11/11 08:59:25;;;;;;;4.37;3.90;;;10.30;99.90;;;;;;5076442;28;20177;-65
2022/11/11 09:01:51;;;;;;;6.10;4.17;;;10.30;99.90;;;;;;5076288;28;20173;-66
2022/11/11 09:04:17;;;;;;;4.57;4.07;;;10.40;99.90;;;;;;5076469;28;20169;-65
2022/11/11 09:06:44;;;;;;;4.93;3.80;;;10.50;99.90;;;;;;5076163;28;20190;-65
2022/11/11 09:09:10;;;;;;;6.30;4.07;;;10.60;99.90;;;;;;5075099;28;20193;-65
2022/11/11 09:11:36;;;;;;;5.37;4.00;;;10.70;99.90;;;;;;5076466;28;20174;-65
2022/11/11 09:14:02;;;;;;;4.40;4.00;;;10.80;99.90;;;;;;5076177;28;20170;-65
2022/11/11 09:16:27;;;;;;;4.87;3.80;;;10.90;99.90;;;;;;5075956;28;20205;-65
2022/11/11 09:18:53;;;;;;;5.23;3.90;;;11.10;99.90;;;;;;5076189;28;20181;-65
2022/11/11 09:21:19;;;;;;;4.27;3.87;;;11.20;99.90;;;;;;5076014;28;20604;-65
2022/11/11 09:23:44;;;;;;;4.60;3.63;;;11.30;99.90;;;;;;5074708;28;20174;-65
2022/11/11 09:26:10;;;;;;;3.67;3.33;;;11.40;99.90;;;;;;5074571;28;20231;-65
2022/11/11 09:28:36;;;;;;;4.80;3.40;;;11.50;99.90;;;;;;5075797;28;20626;-65
2022/11/11 09:31:02;;;;;;;3.87;3.57;;;11.70;99.90;;;;;;5076095;28;20197;-65
2022/11/11 09:33:28;;;;;;;3.77;3.30;;;11.80;99.90;;;;;;5075789;28;20177;-66
2022/11/11 09:35:53;;;;;;;4.10;3.78;;;11.80;99.90;;;;;;5075672;28;20202;-65
2022/11/11 09:38:19;;;;;;;3.67;3.37;;;11.90;99.90;;;;;;5075574;28;20565;-65
2022/11/11 09:41:08;;;;;;;3.80;3.40;;;11.90;99.90;;;;;;5076289;28;20250;-65
2022/11/11 09:43:39;;;;;;;3.47;3.10;;;12.00;99.90;;;;;;5074263;28;20170;-66
2022/11/11 09:46:14;;;;;;;4.27;3.47;;;12.00;99.90;;;;;;5075690;28;20198;-65
2022/11/11 09:49:01;;;;;;;3.93;3.23;;;12.10;99.90;;;;;;5075555;28;20199;-65
2022/11/11 09:52:06;;;;;;;4.63;3.30;;;12.20;99.90;;;;;;5075722;28;20192;-65
2022/11/11 09:54:34;;;;;;;5.00;3.60;;;12.30;99.90;;;;;;5075411;28;20174;-65
2022/11/11 09:57:06;;;;;;;4.47;3.53;;;12.30;99.90;;;;;;5075262;28;20228;-65
2022/11/11 09:59:44;;;;;;;4.10;3.33;;;12.40;99.90;;;;;;5075229;28;20241;-65
2022/11/11 10:02:48;;;;;;;4.67;3.50;;;12.40;99.90;;;;;;5074013;28;20219;-65
2022/11/11 10:05:25;;;;;;;3.70;3.40;;;12.40;99.90;;;;;;5067704;28;20533;-65
2022/11/11 10:08:06;;;;;;;3.40;3.20;;;12.40;99.90;;;;;;5075052;28;20216;-65
2022/11/11 10:10:43;;;;;;;5.20;2.90;;;12.50;99.90;;;;;;5075381;28;20162;-65
2022/11/11 10:13:34;;;;;;;3.30;3.10;;;12.60;99.90;;;;;;5075125;28;20158;-65
2022/11/11 10:16:16;;;;;;;3.30;3.00;;;12.70;99.90;;;;;;5074496;28;20218;-65
2022/11/11 10:18:54;;;;;;;4.37;3.17;;;12.80;99.90;;;;;;5075277;28;20162;-65
2022/11/11 10:21:25;;;;;;;3.45;3.15;;;12.90;99.90;;;;;;5073693;28;20174;-65
2022/11/11 10:23:54;;;;;;;3.70;3.40;;;13.00;99.90;;;;;;5075120;28;20162;-65
2022/11/11 10:26:37;;;;;;;3.75;3.20;;;13.00;99.90;;;;;;5073647;28;20327;-69
2022/11/11 10:29:07;;;;;;;3.47;2.90;;;13.10;99.90;;;;;;5075118;28;20547;-69
2022/11/11 10:31:34;;;;;;;3.85;3.35;;;13.10;99.90;;;;;;5074839;28;20176;-69
2022/11/11 10:34:13;;;;;;;4.10;3.20;;;13.10;99.90;;;;;;5075591;28;20545;-69
2022/11/11 10:36:59;;;;;;;3.22;3.00;;;13.10;99.90;;;;;;5074584;28;20213;-69
2022/11/11 10:39:40;;;;;;;3.65;3.00;;;13.20;99.90;;;;;;5074494;28;20193;-69
2022/11/11 10:42:14;;;;;;;4.63;3.25;;;13.20;99.90;;;;;;5074442;28;20215;-69
2022/11/11 10:44:41;;;;;;;3.65;2.95;;;13.30;99.90;;;;;;5074498;28;20245;-69
2022/11/11 10:47:30;;;;;;;3.30;3.10;;;13.50;99.90;;;;;;5124087;27;20276;-69
2022/11/11 10:50:30;;;;;;;3.95;3.22;;;13.70;99.90;;;;;;5102484;27;20195;-70
2022/11/11 10:53:18;;;;;;;2.95;2.75;;;13.80;99.90;;;;;;5094930;28;20245;-70
2022/11/11 10:56:18;;;;;;;2.97;2.72;;;14.00;99.90;;;;;;5085343;28;20284;-70
2022/11/11 10:59:04;;;;;;;3.47;3.13;;;14.20;99.90;;;;;;5000466;28;20234;-69
2022/11/11 11:01:48;;;;;;;5.18;2.97;;;14.40;99.90;;;;;;4864465;29;20191;-70
2022/11/11 11:04:35;;;;;;;2.95;2.65;;;14.60;99.90;;;;;;4801310;29;20204;-69
2022/11/11 11:07:04;;;;;;;2.88;2.58;;;14.70;99.90;;;;;;4771611;30;20204;-69
2022/11/11 11:09:49;;;;;;;4.22;3.00;;;14.70;99.90;;;;;;4769302;30;20326;-69
2022/11/11 11:12:18;;;;;;;4.03;2.70;;;14.80;99.90;;;;;;4770977;30;20612;-69
2022/11/11 11:14:50;;;;;;;4.57;2.80;;;14.90;99.90;;;;;;4771052;30;20621;-69
2022/11/11 11:17:52;;;;;;;3.53;2.70;;;15.00;99.90;;;;;;4771095;30;20298;-69
2022/11/11 11:20:20;;;;;;;6.82;2.80;;;15.10;99.90;;;;;;4770423;30;20196;-69
2022/11/11 11:22:46;;;;;;;2.80;2.50;;;15.10;99.90;;;;;;4769678;30;20196;-69
2022/11/11 11:25:13;;;;;;;3.45;2.80;;;15.10;99.90;;;;;;4770791;30;20651;-69
2022/11/11 11:27:38;;;;;;;3.78;2.70;;;15.20;99.90;;;;;;4770689;30;20213;-69
2022/11/11 11:30:30;;;;;;;2.40;2.20;;;15.30;99.90;;;;;;4771099;30;20189;-69
2022/11/11 11:33:01;;;;;;;2.50;2.30;;;15.30;99.90;;;;;;4770802;30;20262;-69
2022/11/11 11:35:32;;;;;;;2.80;2.60;;;15.40;99.90;;;;;;4771364;30;20180;-69
2022/11/11 11:37:58;;;;;;;2.92;2.63;;;15.50;99.90;;;;;;4770551;30;20250;-69
2022/11/11 11:40:24;;;;;;;2.80;2.60;;;15.60;99.90;;;;;;4770630;30;20255;-69
2022/11/11 11:42:50;;;;;;;2.65;2.45;;;15.60;99.90;;;;;;4770618;30;20206;-69
2022/11/11 11:45:28;;;;;;;3.03;2.70;;;15.40;99.90;;;;;;4784664;30;20196;-69
2022/11/11 11:48:20;;;;;;;3.63;2.63;;;15.50;99.90;;;;;;4770811;30;20678;-69
2022/11/11 11:50:51;;;;;;;4.28;2.50;;;15.70;99.90;;;;;;4770688;30;20185;-69
2022/11/11 11:53:34;;;;;;;2.85;2.40;;;15.90;99.90;;;;;;4770841;30;20639;-69
2022/11/11 11:56:11;;;;;;;4.57;2.50;;;15.90;99.90;;;;;;4770523;30;20261;-69
2022/11/11 11:58:46;;;;;;;2.97;2.40;;;15.90;99.90;;;;;;4770536;30;20191;-69
2022/11/11 12:01:21;;;;;;;3.75;2.40;;;15.70;99.90;;;;;;4790359;29;20190;-69
2022/11/11 12:04:04;;;;;;;2.63;2.42;;;15.80;99.90;;;;;;4841298;29;20584;-69
2022/11/11 12:06:38;;;;;;;4.05;2.70;;;15.80;99.90;;;;;;4897895;29;20572;-69
2022/11/11 12:09:25;;;;;;;2.85;2.60;;;15.80;99.90;;;;;;4897552;29;20274;-69
2022/11/11 12:12:28;;;;;;;4.70;2.95;;;15.90;99.90;;;;;;4896121;29;20175;-69
2022/11/11 12:15:36;;;;;;;3.47;3.13;;;16.00;99.90;;;;;;4897550;29;20550;-69
2022/11/11 12:18:30;;;;;;;2.90;2.58;;;16.00;99.90;;;;;;4869856;29;20655;-69
2022/11/11 12:21:10;;;;;;;3.67;2.80;;;15.80;99.90;;;;;;4912235;29;20642;-69
2022/11/11 12:23:50;;;;;;;2.67;2.47;;;15.90;99.90;;;;;;4899813;29;20620;-69
2022/11/11 12:26:41;;;;;;;2.60;2.40;;;16.00;99.90;;;;;;4900761;29;20156;-69
2022/11/11 12:29:10;;;;;;;3.03;2.70;;;16.00;99.90;;;;;;4874971;29;20550;-69
2022/11/11 12:31:35;;;;;;;2.80;2.50;;;16.00;99.90;;;;;;4900651;29;20319;-69
2022/11/11 12:34:23;;;;;;;3.67;2.40;;;15.80;99.90;;;;;;4899320;29;20263;-69
2022/11/11 12:36:56;;;;;;;5.47;2.65;;;15.80;99.90;;;;;;4900416;29;20207;-69
2022/11/11 12:39:47;;;;;;;2.78;2.50;;;15.90;99.90;;;;;;4900498;29;20184;-69
2022/11/11 12:42:32;;;;;;;2.70;2.30;;;15.90;99.90;;;;;;4893820;29;20283;-69
2022/11/11 12:45:11;;;;;;;2.92;2.30;;;16.00;99.90;;;;;;4900460;29;20620;-69
2022/11/11 12:48:04;;;;;;;4.53;2.63;;;16.00;99.90;;;;;;4900705;29;20684;-69
2022/11/11 12:50:43;;;;;;;4.47;2.50;;;16.00;99.90;;;;;;4900911;29;20176;-69
2022/11/11 12:53:14;;;;;;;2.33;2.13;;;16.10;99.90;;;;;;4900459;29;20171;-69
2022/11/11 12:55:51;;;;;;;2.97;2.38;;;16.20;99.90;;;;;;4900455;29;20191;-69
2022/11/11 12:58:35;;;;;;;2.30;2.13;;;16.20;99.90;;;;;;4900186;29;20207;-69
2022/11/11 13:01:27;;;;;;;3.13;2.45;;;16.20;99.90;;;;;;4877770;28;1191901;-70
2022/11/11 13:04:14;;;;;;;3.17;2.40;;;16.10;99.90;;;;;;4959504;28;20256;-69
2022/11/11 13:07:01;;;;;;;3.22;2.10;;;16.10;99.90;;;;;;4973468;28;20202;-68
2022/11/11 13:09:45;;;;;;;3.97;2.58;;;16.00;99.90;;;;;;4958790;29;20186;-68
2022/11/11 13:12:42;;;;;;;4.25;2.10;;;15.90;99.90;;;;;;4958162;28;20178;-68
2022/11/11 13:15:25;;;;;;;2.60;2.28;;;15.90;99.90;;;;;;4958395;28;20222;-68
2022/11/11 13:17:52;;;;;;;2.40;2.20;;;16.00;99.90;;;;;;4958202;28;20300;-68
2022/11/11 13:20:22;;;;;;;4.95;2.28;;;16.00;99.90;;;;;;4958141;28;20600;-68
2022/11/11 13:22:49;;;;;;;2.40;2.20;;;16.00;99.90;;;;;;4958296;29;20174;-68
2022/11/11 13:25:29;;;;;;;5.78;4.03;;;16.00;99.90;;;;;;4958111;29;20638;-69
2022/11/11 13:28:28;;;;;;;5.43;4.18;;;16.00;99.90;;;;;;4957987;29;20649;-69
2022/11/11 13:31:15;;;;;;;3.72;2.55;;;16.00;99.90;;;;;;4956513;29;20277;-69
2022/11/11 13:33:57;;;;;;;2.15;2.00;;;16.00;99.90;;;;;;4957775;28;20170;-65
2022/11/11 13:36:27;;;;;;;3.60;2.50;;;15.90;99.90;;;;;;4956364;29;20249;-65
2022/11/11 13:38:57;;;;;;;4.63;2.47;;;15.80;99.90;;;;;;4958084;28;20188;-69
2022/11/11 13:41:29;;;;;;;2.30;2.10;;;15.80;99.90;;;;;;4956512;29;20589;-70
2022/11/11 13:43:59;;;;;;;2.47;2.20;;;15.60;99.90;;;;;;4957524;28;20170;-68
2022/11/11 13:46:44;;;;;;;3.40;2.20;;;15.60;99.90;;;;;;4972344;28;20257;-69
2022/11/11 13:49:36;;;;;;;2.85;2.55;;;15.60;99.90;;;;;;4958445;28;20512;-69
2022/11/11 13:52:19;;;;;;;4.32;2.33;;;15.50;99.90;;;;;;4957563;28;20162;-69
2022/11/11 13:54:54;;;;;;;2.78;2.50;;;15.50;99.90;;;;;;4957769;28;20162;-68
2022/11/11 13:57:22;;;;;;;3.53;2.35;;;15.40;99.90;;;;;;4956237;29;20247;-65
2022/11/11 14:00:17;;;;;;;2.80;2.40;;;15.40;99.90;;;;;;4955992;29;20220;-65
2022/11/11 14:02:43;;;;;;;4.15;2.50;;;15.40;99.90;;;;;;4967631;28;20205;-66
2022/11/11 14:05:09;;;;;;;2.70;2.38;;;15.30;99.90;;;;;;5035700;28;20290;-66
2022/11/11 14:07:43;;;;;;;2.53;2.33;;;15.30;99.90;;;;;;5036074;28;20241;-65
2022/11/11 14:10:16;;;;;;;3.03;2.45;;;15.30;99.90;;;;;;5017355;28;20181;-65
2022/11/11 14:12:46;;;;;;;2.60;2.40;;;15.30;99.90;;;;;;5035018;28;20198;-66
2022/11/11 14:15:47;;;;;;;2.38;2.17;;;15.30;99.90;;;;;;5017525;28;20766;-64
2022/11/11 14:18:19;;;;;;;5.18;2.60;;;15.30;99.90;;;;;;5017032;28;20215;-65
2022/11/11 14:20:45;;;;;;;2.75;2.35;;;15.20;99.90;;;;;;5017268;28;20252;-64
2022/11/11 14:23:17;;;;;;;3.90;2.40;;;15.20;99.90;;;;;;5034900;28;20175;-65
2022/11/11 14:25:45;;;;;;;2.47;2.30;;;15.20;99.90;;;;;;5034884;28;20171;-65
2022/11/11 14:28:29;;;;;;;3.97;2.55;;;15.20;99.90;;;;;;5034653;28;20202;-64
2022/11/11 14:31:20;;;;;;;2.90;2.40;;;15.20;99.90;;;;;;5034773;28;20175;-64
2022/11/11 14:34:21;;;;;;;3.10;2.40;;;15.20;99.90;;;;;;5016501;28;20202;-64